2CL0 weather

Commerce Business Park Heliport
City of Commerce, California, United States

Public forecast

Using degrees Fahrenheit for public forecast. Weather courtesy of forecast.io.

Closest aviation weather report (METAR) to Commerce Business Park Heliport

Report is more than 6 hours old.

Closest report is San Gabriel Valley Airport, 8.7 nm (16.0 km) NE. Retrieved 2020/07/13 23:48 UTC (23 hours ago):

KEMT 132348Z 20013G18KT 10SM CLR 21/14 A2987

Closest aviation forecast (TAF) to Commerce Business Park Heliport

Closest forecast is Long Beach /Daugherty Field/ Airport, 10.2 nm (18.8 km) S. Retrieved 2020/07/14 18:36 UTC (4 hours ago):

TAF KLGB 141733Z 1418/1518 00000KT P6SM SCT025 BKN150 FM141900 19008KT P6SM SCT025 FM150200 30008KT P6SM SKC FM150600 VRB03KT P6SM OVC015 FM151200 14005KT P6SM OVC020